Forside
METAR-TAF:

METAR-TAF

Lufthavne :

Derby, Australien

Breddekreds: 17-22-12S, længdekreds: 123-39-38E, højde: 7 m

Aktuelle vejr

Denne rapport blev lavet for 1 time og 19 minutter siden, kl. 15:00 UTC
Vind 9 kt fra nord
Temperatur 28°C
Fugtighed 79%
Tryk 1009 hPa
Sigt 10 km eller mere

METAR: YDBY 231500Z AUTO 35009KT 9999 // NCD 28/24 Q1009

Tid: 00:19 (16:19 UTC)


TAF: fraværende

Vejrobservationer og prognoser fra mere end 4000 lufthavne (METAR og TAF).

De gule og røde prikker repræsenterer de meteorologiske stationer.

Flyt musen over at se navnet på stationen.

Så klik over at se vejr observationer og prognoser.

At skifte det kort: Klik på de grønne knapper med et sort kors for at zoome ind; på den grønne knap med en bindestreg for at zoome ud; eller på de grønne pile for tilstødende kort.


METAR-TAF: